Time;durP1;ratioP1;P1;durP2;ratioP2;P2;SDS_P1;SDS_P2;PMS_P1;PMS_P2;Temp;Humidity;BMP_temperature;BMP_pressure;BME280_temperature;BME280_humidity;BME280_pressure;Samples;Min_cycle;Max_cycle;Signal;HPM_P1;HPM_P2
2021/01/17 00:01:16;;;;;;;33.20;19.13;;;;;;;4.55;59.81;101547.50;4977095;28;124159;-71
2021/01/17 00:03:42;;;;;;;36.20;20.38;;;;;;;4.53;59.95;101533.53;4984207;28;109623;-71
2021/01/17 00:06:09;;;;;;;37.65;20.75;;;;;;;4.54;60.03;101535.25;4980688;28;109737;-72
2021/01/17 00:08:36;;;;;;;36.28;20.52;;;;;;;4.53;59.94;101534.38;4980765;28;124309;-71
2021/01/17 00:11:02;;;;;;;36.47;20.38;;;;;;;4.53;59.84;101534.38;4978300;28;124446;-71
2021/01/17 00:13:29;;;;;;;34.45;20.35;;;;;;;4.53;60.13;101536.16;4975074;28;109161;-71
2021/01/17 00:15:55;;;;;;;35.55;20.73;;;;;;;4.52;59.75;101531.75;4977762;28;110133;-71
2021/01/17 00:18:22;;;;;;;36.15;20.42;;;;;;;4.51;59.95;101524.81;4993786;28;124425;-70
2021/01/17 00:21:07;;;;;;;38.67;20.88;;;;;;;4.51;60.06;101535.28;4991403;28;122052;-71
2021/01/17 00:23:35;;;;;;;37.65;21.23;;;;;;;4.49;59.77;101528.28;4976058;28;111042;-71
2021/01/17 00:26:02;;;;;;;37.03;20.75;;;;;;;4.47;60.00;101519.56;4978768;28;109434;-72
2021/01/17 00:28:28;;;;;;;40.33;21.88;;;;;;;4.47;60.15;101529.19;4974808;28;124441;-72
2021/01/17 00:30:55;;;;;;;39.72;21.85;;;;;;;4.46;59.74;101523.09;4977004;28;123845;-71
2021/01/17 00:33:22;;;;;;;33.75;20.90;;;;;;;4.45;60.15;101520.47;4986124;28;109666;-72
2021/01/17 00:35:48;;;;;;;38.15;20.88;;;;;;;4.46;60.18;101523.09;4979444;28;110111;-71
2021/01/17 00:38:15;;;;;;;36.50;21.08;;;;;;;4.45;60.23;101516.09;4990672;28;123323;-71
2021/01/17 00:40:41;;;;;;;36.97;20.75;;;;;;;4.47;60.29;101511.69;4974785;28;124077;-71
2021/01/17 00:43:08;;;;;;;36.60;20.90;;;;;;;4.46;60.27;101517.84;4981431;28;109201;-72
2021/01/17 00:45:35;;;;;;;35.15;20.48;;;;;;;4.49;60.25;101517.81;4981797;28;109851;-71
2021/01/17 00:48:02;;;;;;;36.75;20.95;;;;;;;4.49;60.18;101520.41;4992990;28;123714;-71
2021/01/17 00:50:31;;;;;;;35.50;21.02;;;;;;;4.52;60.25;101518.66;4972065;28;123385;-72
2021/01/17 00:53:01;;;;;;;38.20;21.35;;;;;;;4.54;59.97;101519.50;4975009;28;109327;-71
2021/01/17 00:55:37;;;;;;;38.00;22.17;;;;;;;4.54;60.06;101524.75;4974195;28;109331;-71
2021/01/17 00:58:11;;;;;;;39.33;21.83;;;;;;;4.55;60.04;101521.25;4994538;28;123181;-72
2021/01/17 01:00:39;;;;;;;33.30;20.35;;;;;;;4.58;59.90;101516.00;4986792;28;123582;-71
2021/01/17 01:03:19;;;;;;;41.92;22.20;;;;;;;4.58;59.96;101526.50;4989380;28;109625;-72
2021/01/17 01:05:45;;;;;;;37.08;20.70;;;;;;;4.59;60.18;101517.72;4975744;28;110316;-72
2021/01/17 01:08:12;;;;;;;36.85;20.63;;;;;;;4.59;59.86;101512.47;4981075;28;124215;-72
2021/01/17 01:10:39;;;;;;;39.75;21.65;;;;;;;4.58;60.36;101508.13;4973980;28;124339;-72
2021/01/17 01:13:05;;;;;;;38.92;22.05;;;;;;;4.56;60.04;101512.50;4972828;28;110357;-72
2021/01/17 01:15:32;;;;;;;38.75;21.48;;;;;;;4.55;59.85;101495.88;4976908;28;110142;-72
2021/01/17 01:17:59;;;;;;;41.00;22.38;;;;;;;4.53;60.09;101497.66;4977519;28;124851;-71
2021/01/17 01:20:26;;;;;;;39.10;21.65;;;;;;;4.53;60.37;101496.78;4987117;28;124221;-73
2021/01/17 01:22:52;;;;;;;41.50;22.10;;;;;;;4.52;60.04;101501.19;4988415;28;108930;-72
2021/01/17 01:25:19;;;;;;;40.92;21.30;;;;;;;4.54;60.25;101506.38;4994399;28;109488;-72
2021/01/17 01:27:49;;;;;;;42.58;22.02;;;;;;;4.53;60.46;101507.28;4975647;28;124275;-71
2021/01/17 01:30:16;;;;;;;42.42;22.50;;;;;;;4.55;60.44;101505.53;4974953;28;124502;-71
2021/01/17 01:32:42;;;;;;;38.42;21.75;;;;;;;4.56;60.47;101507.25;4977938;28;109582;-71
2021/01/17 01:35:10;;;;;;;41.35;22.23;;;;;;;4.57;60.41;101504.59;4980337;28;110174;-71
2021/01/17 01:37:37;;;;;;;40.28;22.27;;;;;;;4.60;60.16;101508.97;4981849;28;123941;-72
2021/01/17 01:40:04;;;;;;;42.40;21.42;;;;;;;4.61;60.32;101500.22;4993278;28;127004;-71
2021/01/17 01:42:31;;;;;;;38.30;22.02;;;;;;;4.63;60.20;101498.44;4975572;28;109533;-71
2021/01/17 01:44:58;;;;;;;39.28;21.27;;;;;;;4.63;60.38;101498.44;4981195;28;110387;-72
2021/01/17 01:47:27;;;;;;;41.50;21.50;;;;;;;4.62;60.36;101507.22;4983507;28;124102;-72
2021/01/17 01:49:55;;;;;;;44.08;22.15;;;;;;;4.62;60.40;101507.22;4984545;28;123690;-71
2021/01/17 01:52:21;;;;;;;48.08;22.95;;;;;;;4.62;60.24;101507.22;4989527;28;108207;-72
2021/01/17 01:54:48;;;;;;;43.15;23.65;;;;;;;4.63;60.46;101508.94;4983952;28;109957;-72
2021/01/17 01:57:15;;;;;;;42.60;22.48;;;;;;;4.64;60.28;101500.19;4986210;28;124135;-72
2021/01/17 01:59:42;;;;;;;45.92;22.35;;;;;;;4.66;60.28;101508.91;4980557;28;122649;-72
2021/01/17 02:02:09;;;;;;;39.95;22.33;;;;;;;4.68;60.48;101508.00;4984896;28;110384;-72
2021/01/17 02:04:36;;;;;;;43.67;22.77;;;;;;;4.71;60.30;101500.97;4986561;28;109455;-71
2021/01/17 02:07:47;;;;;;;43.95;22.70;;;;;;;4.68;60.37;101497.50;4985563;28;123863;-72
2021/01/17 02:10:16;;;;;;;44.22;22.55;;;;;;;4.67;60.52;101489.63;4977228;28;123630;-71
2021/01/17 02:12:56;;;;;;;41.55;22.40;;;;;;;4.67;60.43;101489.63;4984791;28;108997;-71
2021/01/17 02:15:36;;;;;;;46.92;23.25;;;;;;;4.64;60.33;101484.44;4985705;28;107918;-71
2021/01/17 02:18:04;;;;;;;46.35;22.85;;;;;;;4.62;60.28;101470.47;4988156;28;124278;-72
2021/01/17 02:20:35;;;;;;;50.58;24.42;;;;;;;4.62;60.50;101475.72;4979288;28;124426;-72
2021/01/17 02:23:15;;;;;;;48.85;23.42;;;;;;;4.60;60.51;101480.13;5001717;28;109363;-71
2021/01/17 02:25:42;;;;;;;43.78;22.40;;;;;;;4.58;60.46;101468.78;4981841;28;110402;-71
2021/01/17 02:28:15;;;;;;;47.97;23.80;;;;;;;4.56;60.50;101465.28;4981709;28;123635;-72
2021/01/17 02:30:54;;;;;;;43.80;23.70;;;;;;;4.56;60.55;101470.50;4977413;28;123878;-73
2021/01/17 02:33:26;;;;;;;47.92;22.65;;;;;;;4.57;60.61;101477.53;4978003;28;109281;-72
2021/01/17 02:36:32;;;;;;;46.88;22.73;;;;;;;4.58;60.80;101474.03;4979108;28;110236;-72
2021/01/17 02:39:05;;;;;;;45.88;21.90;;;;;;;4.58;60.46;101474.03;4993398;28;123771;-72
2021/01/17 02:41:38;;;;;;;46.85;23.13;;;;;;;4.57;60.65;101474.91;4979966;28;124252;-72
2021/01/17 02:44:07;;;;;;;45.95;22.08;;;;;;;4.59;60.93;101475.75;4976206;28;109806;-72
2021/01/17 02:46:33;;;;;;;45.85;22.42;;;;;;;4.62;60.96;101475.72;4995352;28;110606;-71
2021/01/17 02:49:00;;;;;;;47.65;22.55;;;;;;;4.63;61.04;101466.94;4980095;28;124532;-72
2021/01/17 02:51:27;;;;;;;43.88;21.33;;;;;;;4.63;61.07;101467.84;4982232;28;123766;-72
2021/01/17 02:54:04;;;;;;;44.92;21.70;;;;;;;4.64;60.95;101473.94;4993749;28;110686;-72
2021/01/17 02:56:32;;;;;;;47.72;22.48;;;;;;;4.66;60.92;101477.44;4977324;28;109061;-72
2021/01/17 02:59:00;;;;;;;41.20;21.42;;;;;;;4.67;60.81;101464.31;4995230;28;124431;-72
2021/01/17 03:01:31;;;;;;;42.78;22.25;;;;;;;4.70;60.94;101473.88;4988489;28;124046;-72
2021/01/17 03:04:27;;;;;;;44.55;21.98;;;;;;;4.72;61.05;101477.34;4975422;28;109022;-72
2021/01/17 03:06:53;;;;;;;45.05;21.45;;;;;;;4.75;60.63;101472.09;4975181;28;109728;-72
2021/01/17 03:09:20;;;;;;;47.47;21.15;;;;;;;4.76;60.85;101465.94;4993876;28;123166;-72
2021/01/17 03:11:46;;;;;;;43.88;21.52;;;;;;;4.76;60.75;101468.56;4972949;28;124776;-71
2021/01/17 03:14:13;;;;;;;44.30;21.08;;;;;;;4.78;60.83;101460.69;4993758;28;108646;-72
2021/01/17 03:16:40;;;;;;;45.28;21.90;;;;;;;4.78;60.77;101461.53;4982866;28;110271;-72
2021/01/17 03:19:07;;;;;;;42.78;21.48;;;;;;;4.76;60.94;101458.06;4973237;28;123803;-72
2021/01/17 03:21:34;;;;;;;44.70;21.23;;;;;;;4.77;60.83;101456.31;4974351;28;123716;-72
2021/01/17 03:24:00;;;;;;;39.05;20.67;;;;;;;4.76;61.01;101452.81;4958802;28;108660;-73
2021/01/17 03:26:27;;;;;;;40.75;20.45;;;;;;;4.77;61.07;101459.81;4978063;28;109658;-72
2021/01/17 03:28:53;;;;;;;40.67;20.98;;;;;;;4.78;61.13;101466.78;4994084;28;123863;-72
2021/01/17 03:31:20;;;;;;;42.03;20.20;;;;;;;4.80;61.03;101458.91;4979463;28;123850;-72
2021/01/17 03:33:47;;;;;;;44.42;20.90;;;;;;;4.82;60.96;101458.03;4981517;28;110051;-72
2021/01/17 03:36:13;;;;;;;41.05;19.42;;;;;;;4.82;60.95;101463.25;4996296;28;110628;-72
2021/01/17 03:38:40;;;;;;;43.67;20.35;;;;;;;4.82;61.00;101458.03;4971199;28;124210;-71
2021/01/17 03:41:10;;;;;;;43.20;20.98;;;;;;;4.83;61.16;101457.09;4999462;28;123792;-72
2021/01/17 03:43:37;;;;;;;38.33;19.85;;;;;;;4.85;60.99;101457.97;4986050;28;109356;-72
2021/01/17 03:46:03;;;;;;;38.53;19.63;;;;;;;4.86;61.02;101459.72;4987171;28;110261;-72
2021/01/17 03:48:30;;;;;;;39.25;21.05;;;;;;;4.86;60.97;101453.59;4981056;28;124752;-72
2021/01/17 03:50:57;;;;;;;38.90;19.50;;;;;;;4.86;60.98;101459.72;4980121;28;124205;-72
2021/01/17 03:53:23;;;;;;;37.22;19.27;;;;;;;4.88;60.98;101457.06;4978206;28;109411;-72
2021/01/17 03:55:50;;;;;;;40.60;19.35;;;;;;;4.88;61.34;101457.94;4984486;28;110431;-72
2021/01/17 03:58:16;;;;;;;37.63;19.48;;;;;;;4.91;61.15;101456.16;4985181;28;122690;-72
2021/01/17 04:00:43;;;;;;;34.65;19.20;;;;;;;4.92;61.22;101465.78;4984652;28;123760;-72
2021/01/17 04:03:10;;;;;;;38.45;19.80;;;;;;;4.92;61.26;101457.91;4976684;28;109004;-72
2021/01/17 04:05:36;;;;;;;38.67;19.48;;;;;;;4.92;60.91;101455.28;4975483;28;108067;-72
2021/01/17 04:08:03;;;;;;;38.33;18.30;;;;;;;4.93;61.25;101454.38;4996625;28;123018;-72
2021/01/17 04:10:30;;;;;;;33.22;17.73;;;;;;;4.92;61.13;101452.66;4991177;28;123178;-72
2021/01/17 04:12:56;;;;;;;39.75;18.83;;;;;;;4.93;61.02;101459.63;4976164;28;109146;-72
2021/01/17 04:15:23;;;;;;;34.65;18.00;;;;;;;4.93;61.18;101459.63;4978173;28;109635;-73
2021/01/17 04:17:49;;;;;;;34.95;18.00;;;;;;;4.93;61.45;101454.38;4992716;28;122975;-73
2021/01/17 04:20:16;;;;;;;35.38;17.85;;;;;;;4.96;61.25;101454.34;4978202;28;124109;-73
2021/01/17 04:22:42;;;;;;;34.33;18.15;;;;;;;4.95;61.06;101452.59;4994795;28;109167;-72
2021/01/17 04:25:10;;;;;;;31.77;17.58;;;;;;;4.98;61.49;101460.47;4978562;28;110664;-73
2021/01/17 04:27:36;;;;;;;36.45;17.83;;;;;;;5.00;61.14;101456.06;4981862;28;124936;-72
2021/01/17 04:30:05;;;;;;;34.40;17.95;;;;;;;5.01;61.33;101457.78;4978078;28;124078;-72
2021/01/17 04:32:31;;;;;;;32.78;18.02;;;;;;;5.02;61.11;101456.91;4973780;28;110645;-72
2021/01/17 04:34:58;;;;;;;34.60;18.20;;;;;;;5.03;61.28;101456.88;4975960;28;110284;-72
2021/01/17 04:37:25;;;;;;;33.28;17.42;;;;;;;5.04;61.31;101452.50;4976023;28;124475;-72
2021/01/17 04:39:51;;;;;;;32.38;17.67;;;;;;;5.04;61.16;101452.50;4958243;28;124730;-72
2021/01/17 04:42:20;;;;;;;32.60;17.15;;;;;;;5.06;61.17;101461.22;4975733;28;109746;-72
2021/01/17 04:44:51;;;;;;;33.70;17.80;;;;;;;5.04;61.37;101457.75;4975947;28;109488;-72
2021/01/17 04:47:19;;;;;;;32.45;18.00;;;;;;;5.05;61.32;101455.13;4977401;28;124015;-72
2021/01/17 04:49:50;;;;;;;31.77;17.75;;;;;;;5.06;61.41;101455.97;4989929;28;123905;-72
2021/01/17 04:52:20;;;;;;;31.75;16.67;;;;;;;5.06;61.18;101456.84;4982288;28;109521;-71
2021/01/17 04:54:47;;;;;;;33.97;17.58;;;;;;;5.07;61.17;101457.72;4975317;28;108231;-72
2021/01/17 04:57:31;;;;;;;31.50;16.48;;;;;;;5.09;61.41;101457.72;4975341;28;124134;-71
2021/01/17 05:00:06;;;;;;;31.58;16.98;;;;;;;5.10;61.16;101448.94;4991816;28;124268;-71
2021/01/17 05:02:42;;;;;;;29.70;16.52;;;;;;;5.10;61.13;101441.91;4977998;28;108968;-71
2021/01/17 05:05:14;;;;;;;29.65;16.00;;;;;;;5.11;61.41;101451.53;4975236;28;110444;-71
2021/01/17 05:07:50;;;;;;;28.00;16.30;;;;;;;5.11;61.11;101454.16;4973675;28;123847;-71
2021/01/17 05:10:33;;;;;;;27.30;15.63;;;;;;;5.11;61.05;101453.31;4987522;28;123106;-71
2021/01/17 05:13:11;;;;;;;29.60;16.10;;;;;;;5.10;61.25;101449.78;4975912;28;109675;-71
2021/01/17 05:15:40;;;;;;;28.00;15.70;;;;;;;5.10;61.33;101449.78;4975032;28;110398;-71
2021/01/17 05:18:08;;;;;;;28.27;14.85;;;;;;;5.09;61.35;101445.44;4977256;28;124331;-71
2021/01/17 05:20:35;;;;;;;27.88;15.68;;;;;;;5.09;61.49;101450.69;4976789;28;123897;-71
2021/01/17 05:23:08;;;;;;;30.20;16.00;;;;;;;5.09;61.51;101445.44;4975634;28;110330;-71
2021/01/17 05:25:35;;;;;;;28.48;15.60;;;;;;;5.10;61.39;101446.31;4975597;28;109354;-72
2021/01/17 05:28:02;;;;;;;28.05;14.95;;;;;;;5.10;61.39;101439.28;4976198;28;124684;-72
2021/01/17 05:30:28;;;;;;;28.38;15.55;;;;;;;5.11;61.39;101438.41;4982146;28;124592;-72
2021/01/17 05:32:55;;;;;;;28.40;15.70;;;;;;;5.10;61.54;101441.91;4979895;28;109079;-70
2021/01/17 05:35:23;;;;;;;32.70;16.15;;;;;;;5.09;61.60;101445.44;4983746;28;110438;-70
2021/01/17 05:37:54;;;;;;;28.80;16.38;;;;;;;5.10;61.55;101447.16;4978728;28;124171;-71
2021/01/17 05:40:22;;;;;;;25.90;15.48;;;;;;;5.13;61.30;101441.88;4979923;28;124346;-70
2021/01/17 05:42:50;;;;;;;26.58;15.50;;;;;;;5.14;61.61;101446.25;4980585;28;109577;-71
2021/01/17 05:45:24;;;;;;;30.25;16.23;;;;;;;5.15;61.58;101447.13;4975875;28;110147;-70
2021/01/17 05:47:51;;;;;;;33.25;15.98;;;;;;;5.17;61.60;101448.81;4979315;28;123499;-73
2021/01/17 05:50:18;;;;;;;31.17;16.95;;;;;;;5.18;61.67;101455.84;4980166;28;124137;-71
2021/01/17 05:52:51;;;;;;;32.63;16.88;;;;;;;5.18;61.42;101455.84;4988413;28;108460;-71
2021/01/17 05:55:18;;;;;;;32.05;17.02;;;;;;;5.20;61.66;101459.31;4991333;28;110130;-71
2021/01/17 05:57:45;;;;;;;31.83;16.40;;;;;;;5.22;61.52;101457.53;4988158;28;123948;-71
2021/01/17 06:00:12;;;;;;;30.85;16.70;;;;;;;5.23;61.68;101459.25;4989528;28;123666;-70
2021/01/17 06:02:41;;;;;;;32.47;17.50;;;;;;;5.26;61.51;101453.09;4994225;28;109074;-72
2021/01/17 06:05:10;;;;;;;30.55;16.30;;;;;;;5.28;61.57;101461.81;4980448;28;108927;-73
2021/01/17 06:07:38;;;;;;;28.55;15.77;;;;;;;5.28;61.31;101463.59;4979934;28;124067;-73
2021/01/17 06:10:06;;;;;;;31.65;16.05;;;;;;;5.29;61.63;101460.06;4988295;28;124308;-71
2021/01/17 06:12:35;;;;;;;30.08;16.83;;;;;;;5.30;61.39;101459.19;4976091;28;110423;-71
2021/01/17 06:15:09;;;;;;;36.00;17.17;;;;;;;5.32;61.80;101467.91;4978856;28;110247;-70
2021/01/17 06:17:45;;;;;;;33.15;16.30;;;;;;;5.33;61.57;101469.63;4973838;28;123791;-70
2021/01/17 06:20:25;;;;;;;29.73;16.42;;;;;;;5.34;61.57;101477.50;4977722;28;124117;-70
2021/01/17 06:22:57;;;;;;;30.13;15.38;;;;;;;5.34;61.54;101472.25;4975546;28;109021;-70
2021/01/17 06:25:30;;;;;;;32.55;16.63;;;;;;;5.32;61.68;101462.66;4975705;28;110482;-70
2021/01/17 06:28:15;;;;;;;32.08;17.17;;;;;;;5.32;61.38;101467.91;4976240;28;123718;-71
2021/01/17 06:30:42;;;;;;;30.23;16.05;;;;;;;5.33;61.46;101464.38;4983304;28;123485;-73
2021/01/17 06:33:21;;;;;;;31.40;17.55;;;;;;;5.33;61.77;101475.78;4990707;28;108547;-73
2021/01/17 06:36:11;;;;;;;34.20;16.65;;;;;;;5.32;61.45;101474.03;4976336;28;110351;-70
2021/01/17 06:38:37;;;;;;;31.88;16.77;;;;;;;5.33;61.56;101474.88;4974178;28;123973;-71
2021/01/17 06:41:04;;;;;;;35.58;16.52;;;;;;;5.32;61.43;101479.28;4971388;28;123446;-71
2021/01/17 06:43:31;;;;;;;31.73;16.38;;;;;;;5.33;61.52;101486.28;4977762;28;109393;-71
2021/01/17 06:46:00;;;;;;;31.05;15.98;;;;;;;5.34;61.50;101487.13;4982677;28;109575;-71
2021/01/17 06:48:27;;;;;;;31.92;16.38;;;;;;;5.33;61.74;101486.28;4987655;28;124965;-73
2021/01/17 06:50:54;;;;;;;35.03;17.10;;;;;;;5.35;61.46;101488.88;4987998;28;124162;-71
2021/01/17 06:53:25;;;;;;;33.47;16.27;;;;;;;5.36;61.71;101498.50;4975385;28;109570;-70
2021/01/17 06:56:14;;;;;;;29.40;16.08;;;;;;;5.35;61.57;101483.59;4976366;28;109239;-71
2021/01/17 06:58:41;;;;;;;35.95;16.75;;;;;;;5.36;61.73;101495.88;4979546;28;124443;-71
2021/01/17 07:01:09;;;;;;;30.90;16.75;;;;;;;5.36;61.74;101501.13;4985264;28;123822;-71
2021/01/17 07:03:52;;;;;;;32.25;16.05;;;;;;;5.37;61.82;101505.47;4981067;28;110827;-73
2021/01/17 07:06:43;;;;;;;32.58;16.23;;;;;;;5.39;61.46;101511.59;4980969;28;109761;-72
2021/01/17 07:09:24;;;;;;;29.08;16.05;;;;;;;5.39;61.67;101509.84;4991813;28;124035;-72
2021/01/17 07:11:58;;;;;;;35.10;15.55;;;;;;;5.42;61.88;101519.41;4971125;28;123485;-72
2021/01/17 07:14:29;;;;;;;31.97;16.50;;;;;;;5.44;61.81;101522.91;4988751;28;109147;-73
2021/01/17 07:16:59;;;;;;;36.95;16.20;;;;;;;5.46;61.52;101529.00;4982949;28;110083;-73
2021/01/17 07:19:33;;;;;;;32.38;16.30;;;;;;;5.43;61.65;101518.53;4981536;28;123562;-73
2021/01/17 07:22:06;;;;;;;34.75;17.23;;;;;;;5.44;61.62;101530.78;4981094;28;124212;-73
2021/01/17 07:24:33;;;;;;;43.05;17.80;;;;;;;5.46;61.61;101534.25;4992434;28;108970;-72
2021/01/17 07:27:24;;;;;;;40.78;18.05;;;;;;;5.46;61.54;101529.00;4993799;28;110391;-73
2021/01/17 07:29:56;;;;;;;36.33;16.80;;;;;;;5.47;61.87;101530.75;4993660;28;124922;-73
2021/01/17 07:32:54;;;;;;;43.08;17.73;;;;;;;5.46;61.80;101540.41;4994133;28;123841;-73
2021/01/17 07:35:27;;;;;;;42.67;16.95;;;;;;;5.50;61.98;101541.22;4995512;28;109099;-73
2021/01/17 07:37:56;;;;;;;45.78;18.70;;;;;;;5.52;61.79;101544.69;4994498;28;109917;-72
2021/01/17 07:40:49;;;;;;;41.40;17.88;;;;;;;5.53;61.54;101535.06;4993163;28;125214;-73
2021/01/17 07:43:12;;;;;;;43.47;19.13;;;;;;;5.55;61.71;101542.00;4995408;28;124122;-72
2021/01/17 07:45:40;;;;;;;48.33;20.08;;;;;;;5.57;62.05;101553.38;4995498;28;109191;-73
2021/01/17 07:48:11;;;;;;;53.35;20.60;;;;;;;5.58;61.94;101554.25;4989090;28;109241;-73
2021/01/17 07:50:41;;;;;;;45.15;19.73;;;;;;;5.60;62.03;101553.34;5010765;28;122048;-73
2021/01/17 07:53:22;;;;;;;45.67;20.65;;;;;;;5.63;61.99;101557.69;4991454;28;123517;-73
2021/01/17 07:55:50;;;;;;;41.97;18.75;;;;;;;5.65;61.98;101562.03;4984163;28;110204;-73
2021/01/17 07:58:17;;;;;;;48.47;19.88;;;;;;;5.69;61.97;101562.88;4994514;28;109913;-73
2021/01/17 08:00:44;;;;;;;46.47;20.55;;;;;;;5.71;61.80;101562.84;4981767;28;124006;-73
2021/01/17 08:03:24;;;;;;;51.97;20.77;;;;;;;5.72;61.46;101561.97;4994219;28;124439;-73
2021/01/17 08:05:55;;;;;;;52.67;20.52;;;;;;;5.75;62.03;101572.44;4977851;28;110085;-73
2021/01/17 08:08:34;;;;;;;42.97;19.92;;;;;;;5.76;61.95;101574.16;4989039;28;110103;-73
2021/01/17 08:11:01;;;;;;;51.50;20.27;;;;;;;5.80;61.78;101584.63;4982287;28;124059;-71
2021/01/17 08:13:34;;;;;;;50.70;21.13;;;;;;;5.82;62.16;101584.59;4991776;28;123693;-71
2021/01/17 08:16:14;;;;;;;55.83;21.20;;;;;;;5.84;61.98;101582.84;4992603;28;108815;-72
2021/01/17 08:18:41;;;;;;;56.92;22.10;;;;;;;5.87;61.77;101582.78;4993202;28;110088;-72
2021/01/17 08:21:34;;;;;;;50.72;21.38;;;;;;;5.88;62.15;101589.78;4981057;28;123822;-72
2021/01/17 08:24:13;;;;;;;51.53;21.35;;;;;;;5.91;61.92;101594.97;4989412;28;124323;-72
2021/01/17 08:26:59;;;;;;;55.53;22.50;;;;;;;5.92;62.13;101599.38;4979920;28;108732;-72
2021/01/17 08:29:26;;;;;;;47.13;20.63;;;;;;;5.96;62.06;101602.84;5000220;28;110129;-74
2021/01/17 08:31:53;;;;;;;60.60;23.35;;;;;;;5.96;62.19;101593.19;4994858;28;124519;-72
2021/01/17 08:34:26;;;;;;;53.25;23.15;;;;;;;6.00;61.97;101600.16;4991820;28;123607;-72
2021/01/17 08:36:55;;;;;;;52.00;22.40;;;;;;;6.02;62.03;101606.25;4976830;28;109640;-72
2021/01/17 08:39:42;;;;;;;64.55;23.95;;;;;;;6.04;62.13;101607.09;4993917;28;109937;-72
2021/01/17 08:42:29;;;;;;;59.97;23.60;;;;;;;6.08;62.00;101614.97;4994052;28;123179;-72
2021/01/17 08:44:57;;;;;;;60.88;24.80;;;;;;;6.12;62.16;101619.28;4996819;28;123714;-72
2021/01/17 08:47:24;;;;;;;54.83;23.05;;;;;;;6.16;62.07;101620.97;5000403;28;109939;-72
2021/01/17 08:49:52;;;;;;;59.35;24.35;;;;;;;6.19;62.30;101618.31;4995745;28;107946;-72
2021/01/17 08:52:28;;;;;;;60.70;23.80;;;;;;;6.24;62.36;101630.50;5000729;28;122777;-72
2021/01/17 08:54:55;;;;;;;67.93;25.17;;;;;;;6.28;62.40;101631.31;5009953;28;124409;-71
2021/01/17 08:57:44;;;;;;;71.95;25.02;;;;;;;6.31;62.45;101636.56;4988995;28;109332;-75
2021/01/17 09:00:14;;;;;;;66.55;24.80;;;;;;;6.34;62.32;101636.50;4974989;28;109981;-72
2021/01/17 09:02:41;;;;;;;69.60;25.50;;;;;;;6.37;62.37;101640.84;4980553;28;124117;-73
2021/01/17 09:05:18;;;;;;;64.35;24.15;;;;;;;6.39;62.32;101639.94;5006065;28;123504;-72
2021/01/17 09:07:46;;;;;;;70.50;24.70;;;;;;;6.43;62.43;101646.88;4974514;28;108742;-73
2021/01/17 09:10:15;;;;;;;67.95;25.00;;;;;;;6.47;62.66;101649.47;4975058;28;108940;-72
2021/01/17 09:12:43;;;;;;;61.78;24.02;;;;;;;6.51;62.53;101648.53;4986810;28;123866;-72
2021/01/17 09:15:17;;;;;;;64.68;23.17;;;;;;;6.55;62.90;101656.34;4996214;28;122093;-73
2021/01/17 09:17:59;;;;;;;55.45;20.33;;;;;;;6.58;62.61;101650.19;4985114;28;108305;-72
2021/01/17 09:20:27;;;;;;;57.25;20.08;;;;;;;6.64;62.93;101655.34;4987378;28;109903;-71
2021/01/17 09:22:55;;;;;;;69.57;19.75;;;;;;;6.69;62.95;101658.78;4984396;28;124012;-71
2021/01/17 09:25:22;;;;;;;62.40;19.52;;;;;;;6.73;62.89;101660.47;4977473;28;123169;-72
2021/01/17 09:27:54;;;;;;;66.53;19.42;;;;;;;6.79;62.99;101665.63;4991636;28;108930;-72
2021/01/17 09:30:23;;;;;;;62.33;19.25;;;;;;;6.85;63.14;101669.06;4988688;28;109931;-71
2021/01/17 09:32:51;;;;;;;47.05;16.38;;;;;;;6.89;63.44;101666.34;4990921;28;124710;-71
2021/01/17 09:35:25;;;;;;;48.75;16.75;;;;;;;6.96;63.09;101672.38;4999665;28;124361;-72
2021/01/17 09:37:58;;;;;;;51.20;17.40;;;;;;;7.00;63.47;101664.41;5006525;28;107932;-71
2021/01/17 09:40:25;;;;;;;52.63;17.52;;;;;;;7.06;63.65;101673.97;4996436;28;109592;-71
2021/01/17 09:42:55;;;;;;;52.90;17.13;;;;;;;7.15;63.27;101678.22;4977158;28;124032;-71
2021/01/17 09:45:21;;;;;;;42.20;15.63;;;;;;;7.20;63.62;101687.78;4978912;28;123343;-71
2021/01/17 09:47:51;;;;;;;49.33;14.23;;;;;;;7.27;63.76;101692.94;5006005;28;108534;-72
2021/01/17 09:50:17;;;;;;;50.05;13.35;;;;;;;7.35;63.89;101696.31;4995302;28;110459;-72
2021/01/17 09:52:44;;;;;;;43.42;13.55;;;;;;;7.40;63.54;101699.72;4975441;28;122477;-71
2021/01/17 09:55:12;;;;;;;42.85;12.45;;;;;;;7.46;63.62;101710.16;4975947;28;124714;-71
2021/01/17 09:57:40;;;;;;;46.95;13.45;;;;;;;7.51;63.72;101724.09;4997391;28;108982;-71
2021/01/17 10:00:13;;;;;;;44.97;13.27;;;;;;;7.57;63.90;101715.22;4975412;28;109596;-71
2021/01/17 10:02:40;;;;;;;41.05;13.10;;;;;;;7.64;63.60;101718.63;4976061;28;124563;-71
2021/01/17 10:05:07;;;;;;;44.25;12.73;;;;;;;7.69;63.84;101722.06;4996919;22;124719;-69
2021/01/17 10:07:34;;;;;;;38.42;12.60;;;;;;;7.76;63.95;101728.94;4983584;28;109374;-69
2021/01/17 10:10:08;;;;;;;44.40;11.98;;;;;;;7.81;63.72;101729.72;4983320;28;109674;-68
2021/01/17 10:12:35;;;;;;;42.30;11.88;;;;;;;7.86;63.69;101733.13;4987118;28;124548;-69
2021/01/17 10:15:13;;;;;;;44.90;12.45;;;;;;;7.90;63.88;101736.59;4986841;28;124483;-68
2021/01/17 10:17:48;;;;;;;47.47;12.00;;;;;;;7.94;63.91;101736.47;4976537;28;109932;-69
2021/01/17 10:20:29;;;;;;;41.78;11.85;;;;;;;7.99;63.54;101744.31;4986010;28;110226;-70
2021/01/17 10:23:05;;;;;;;44.60;12.63;;;;;;;8.04;63.77;101738.94;4983195;28;123336;-70
2021/01/17 10:25:33;;;;;;;44.22;11.55;;;;;;;8.06;63.71;101742.41;4989081;28;124371;-70
2021/01/17 10:28:08;;;;;;;43.63;11.60;;;;;;;8.11;63.76;101745.84;4987496;28;110020;-70
2021/01/17 10:30:37;;;;;;;40.70;10.47;;;;;;;8.14;63.79;101745.78;4987879;28;110084;-69
2021/01/17 10:33:12;;;;;;;35.05;10.88;;;;;;;8.17;63.75;101751.88;4989495;28;122825;-70
2021/01/17 10:35:43;;;;;;;51.63;11.55;;;;;;;8.22;64.14;101748.28;4990407;28;124063;-70
2021/01/17 10:38:12;;;;;;;45.67;11.15;;;;;;;8.27;64.30;101746.38;4991930;28;108246;-70
2021/01/17 10:40:40;;;;;;;39.08;10.52;;;;;;;8.32;63.75;101749.81;4993153;28;108523;-70
2021/01/17 10:43:09;;;;;;;41.92;11.18;;;;;;;8.37;63.93;101748.81;4992923;28;125229;-70
2021/01/17 10:45:39;;;;;;;49.05;11.13;;;;;;;8.45;63.94;101748.66;4989214;28;124694;-70
2021/01/17 10:48:16;;;;;;;43.95;10.77;;;;;;;8.52;64.32;101752.06;4985003;28;108240;-70
2021/01/17 10:51:02;;;;;;;48.38;11.65;;;;;;;8.58;64.40;101751.91;4976199;28;110376;-70
2021/01/17 10:53:39;;;;;;;48.97;11.32;;;;;;;8.68;64.21;101761.38;4976060;28;123127;-70
2021/01/17 10:56:09;;;;;;;42.53;10.85;;;;;;;8.77;64.49;101769.06;4978745;28;124145;-70
2021/01/17 10:58:47;;;;;;;37.30;10.52;;;;;;;8.86;64.42;101756.59;4979945;28;109607;-69
2021/01/17 11:01:14;;;;;;;41.75;10.52;;;;;;;8.94;64.70;101765.19;4971744;28;108767;-70
2021/01/17 11:03:42;;;;;;;40.75;9.90;;;;;;;9.03;64.54;101754.41;4976740;28;123638;-69
2021/01/17 11:06:13;;;;;;;37.47;10.07;;;;;;;9.12;64.51;101759.47;4978787;28;124632;-68
2021/01/17 11:08:45;;;;;;;29.30;9.23;;;;;;;9.20;64.33;101763.72;4966428;28;108440;-69
2021/01/17 11:11:13;;;;;;;30.63;8.63;;;;;;;9.27;64.58;101763.50;4982720;28;108932;-70
2021/01/17 11:13:40;;;;;;;39.47;9.25;;;;;;;9.35;64.52;101765.97;4988235;28;124272;-69
2021/01/17 11:16:08;;;;;;;43.90;9.65;;;;;;;9.43;63.93;101761.34;4987023;28;124040;-69
2021/01/17 11:18:38;;;;;;;41.20;8.93;;;;;;;9.51;64.44;101772.63;4980695;28;109452;-69
2021/01/17 11:21:05;;;;;;;41.95;8.80;;;;;;;9.58;64.54;101764.50;4976871;28;110215;-70
2021/01/17 11:23:32;;;;;;;32.95;8.50;;;;;;;9.67;64.69;101772.22;4975469;28;122209;-69
2021/01/17 11:26:21;;;;;;;29.95;8.52;;;;;;;9.76;64.24;101777.25;4977934;28;122211;-69